Time;durP1;ratioP1;P1;durP2;ratioP2;P2;SDS_P1;SDS_P2;PMS_P1;PMS_P2;Temp;Humidity;BMP_temperature;BMP_pressure;BME280_temperature;BME280_humidity;BME280_pressure;Samples;Min_cycle;Max_cycle;Signal;HPM_P1;HPM_P2
2022/01/22 00:00:55;;;;;;;;;;;3.70;99.90;;;;;;5045013;28;21159;-70
2022/01/22 00:03:22;;;;;;;;;;;3.60;99.90;;;;;;5045156;28;20068;-69
2022/01/22 00:05:50;;;;;;;;;;;3.70;99.90;;;;;;5045300;28;20069;-68
2022/01/22 00:08:17;;;;;;;;;;;3.60;99.90;;;;;;5045256;28;20066;-68
2022/01/22 00:10:45;;;;;;;;;;;3.70;99.90;;;;;;5043910;28;20068;-69
2022/01/22 00:15:57;;;;;;;;;;;3.60;99.90;;;;;;5045827;28;21128;-69
2022/01/22 00:18:24;;;;;;;;;;;3.60;99.90;;;;;;5045410;28;20074;-69
2022/01/22 00:20:53;;;;;;;;;;;3.60;99.90;;;;;;5043918;28;21128;-67
2022/01/22 00:23:26;;;;;;;;;;;3.70;99.90;;;;;;5044986;28;21132;-67
2022/01/22 00:25:53;;;;;;;;;;;3.60;99.90;;;;;;5044912;28;20297;-69
2022/01/22 00:28:20;;;;;;;;;;;3.70;99.90;;;;;;5045490;28;20124;-69
2022/01/22 00:30:47;;;;;;;;;;;3.60;99.90;;;;;;5043708;28;20065;-69
2022/01/22 00:33:16;;;;;;;;;;;3.60;99.90;;;;;;5044897;28;20159;-68
2022/01/22 00:35:43;;;;;;;;;;;3.60;99.90;;;;;;5044797;28;21270;-69
2022/01/22 00:38:12;;;;;;;;;;;3.70;99.90;;;;;;5045320;28;20067;-68
2022/01/22 00:40:40;;;;;;;;;;;3.70;99.90;;;;;;5043845;28;20261;-69
2022/01/22 00:43:07;;;;;;;;;;;3.70;99.90;;;;;;5044555;28;21137;-70
2022/01/22 00:45:34;;;;;;;;;;;3.70;99.90;;;;;;5045160;28;20104;-70
2022/01/22 00:48:01;;;;;;;;;;;3.70;99.90;;;;;;5044142;28;20170;-69
2022/01/22 00:50:30;;;;;;;;;;;3.70;99.90;;;;;;5043394;28;20066;-70
2022/01/22 00:52:57;;;;;;;;;;;3.70;99.90;;;;;;5044651;28;20074;-69
2022/01/22 00:55:25;;;;;;;;;;;3.70;99.90;;;;;;5043872;28;20076;-69
2022/01/22 00:57:53;;;;;;;;;;;3.80;99.90;;;;;;5042947;28;20084;-69
2022/01/22 01:00:21;;;;;;;;;;;3.80;99.90;;;;;;5025201;28;20075;-69
2022/01/22 01:02:48;;;;;;;;;;;3.80;99.90;;;;;;5025618;28;20621;-69
2022/01/22 01:05:15;;;;;;;;;;;3.70;99.90;;;;;;5026221;28;20060;-68
2022/01/22 01:07:44;;;;;;;;;;;3.70;99.90;;;;;;5025921;28;20177;-68
2022/01/22 01:10:15;;;;;;;;;;;3.60;99.90;;;;;;5024961;28;20067;-69
2022/01/22 01:12:45;;;;;;;;;;;3.60;99.90;;;;;;5025883;28;20068;-69
2022/01/22 01:15:22;;;;;;;;;;;3.50;99.90;;;;;;5026090;28;20059;-68
2022/01/22 01:18:06;;;;;;;;;;;3.50;99.90;;;;;;5025920;28;20066;-69
2022/01/22 01:34:21;;;;;;;;;;;3.30;99.90;;;;;;5042447;28;20071;-69
2022/01/22 01:36:49;;;;;;;;;;;3.30;99.90;;;;;;5025526;28;20074;-69
2022/01/22 01:39:21;;;;;;;;;;;3.30;99.90;;;;;;5024860;28;20182;-69
2022/01/22 01:41:57;;;;;;;;;;;3.30;99.90;;;;;;5025499;28;20065;-69
2022/01/22 01:44:26;;;;;;;;;;;3.30;99.90;;;;;;5025525;28;20064;-69
2022/01/22 01:46:56;;;;;;;;;;;3.30;99.90;;;;;;5027978;28;20068;-69
2022/01/22 01:49:23;;;;;;;;;;;3.30;99.90;;;;;;5024454;28;20069;-69
2022/01/22 01:51:52;;;;;;;;;;;3.20;99.90;;;;;;5025207;28;20062;-69
2022/01/22 01:54:30;;;;;;;;;;;3.20;99.90;;;;;;5025393;28;20299;-69
2022/01/22 01:59:44;;;;;;;;;;;3.20;99.90;;;;;;5041566;28;20156;-69
2022/01/22 02:02:14;;;;;;;;;;;3.20;99.90;;;;;;5024873;28;21059;-69
2022/01/22 02:04:43;;;;;;;;;;;3.20;99.90;;;;;;5025069;28;20204;-69
2022/01/22 02:07:10;;;;;;;;;;;3.20;99.90;;;;;;5025017;28;20104;-69
2022/01/22 02:09:43;;;;;;;;;;;3.20;99.90;;;;;;5024689;28;21132;-69
2022/01/22 02:12:17;;;;;;;;;;;3.20;99.90;;;;;;5024895;28;20100;-69
2022/01/22 02:23:40;;;;;;;;;;;3.20;99.90;;;;;;5033130;28;20128;-68
2022/01/22 02:26:09;;;;;;;;;;;3.20;99.90;;;;;;5015397;28;20069;-69
2022/01/22 02:28:42;;;;;;;;;;;3.20;99.90;;;;;;5017848;28;20085;-68
2022/01/22 02:31:14;;;;;;;;;;;3.30;99.90;;;;;;5040712;28;20086;-69
2022/01/22 02:33:59;;;;;;;;;;;3.30;99.90;;;;;;5041732;28;20060;-69
2022/01/22 02:36:31;;;;;;;;;;;3.20;99.90;;;;;;5041765;28;21182;-69
2022/01/22 02:39:03;;;;;;;;;;;3.20;99.90;;;;;;5040810;28;20071;-69
2022/01/22 02:41:31;;;;;;;;;;;3.30;99.90;;;;;;5021652;28;21060;-69
2022/01/22 02:43:58;;;;;;;;;;;3.30;99.90;;;;;;5041534;28;20059;-69
2022/01/22 02:46:26;;;;;;;;;;;3.30;99.90;;;;;;5041025;28;20283;-69
2022/01/22 02:48:54;;;;;;;;;;;3.30;99.90;;;;;;5040454;28;20066;-68
2022/01/22 02:51:22;;;;;;;;;;;3.30;99.90;;;;;;5056212;22;20067;-67
2022/01/22 02:53:53;;;;;;;;;;;3.30;99.90;;;;;;5044516;28;20051;-69
2022/01/22 02:56:23;;;;;;;;;;;3.30;99.90;;;;;;5045630;28;20280;-69
2022/01/22 02:58:50;;;;;;;;;;;3.30;99.90;;;;;;5045082;28;20059;-67
2022/01/22 03:01:18;;;;;;;;;;;3.30;99.90;;;;;;5047070;28;20051;-69
2022/01/22 03:03:48;;;;;;;;;;;3.40;99.90;;;;;;5066311;28;20127;-69
2022/01/22 03:06:15;;;;;;;;;;;3.40;99.90;;;;;;5065630;28;20063;-69
2022/01/22 03:08:44;;;;;;;;;;;3.40;99.90;;;;;;5065857;28;20272;-68
2022/01/22 03:11:19;;;;;;;;;;;3.40;99.90;;;;;;5065663;28;20065;-68
2022/01/22 03:16:45;;;;;;;;;;;3.50;99.90;;;;;;5069430;27;20059;-69
2022/01/22 03:19:27;;;;;;;;;;;3.50;99.90;;;;;;5069376;27;20058;-69
2022/01/22 03:22:00;;;;;;;;;;;3.50;99.90;;;;;;5069326;27;21140;-68
2022/01/22 03:27:22;;;;;;;;;;;3.50;99.90;;;;;;5069202;27;20058;-68
2022/01/22 03:29:51;;;;;;;;;;;3.50;99.90;;;;;;5068528;27;20057;-69
2022/01/22 03:32:19;;;;;;;;;;;3.50;99.90;;;;;;5068848;27;20284;-68
2022/01/22 03:34:56;;;;;;;;;;;3.50;99.90;;;;;;5069519;27;20051;-69
2022/01/22 03:37:24;;;;;;;;;;;3.50;99.90;;;;;;5069366;27;20059;-69
2022/01/22 03:39:52;;;;;;;;;;;3.50;99.90;;;;;;5085889;27;20073;-69
2022/01/22 03:42:20;;;;;;;;;;;3.50;99.90;;;;;;5069302;27;20065;-69
2022/01/22 03:44:47;;;;;;;;;;;3.50;99.90;;;;;;5069462;27;20201;-69
2022/01/22 03:47:16;;;;;;;;;;;3.50;99.90;;;;;;5069039;27;20119;-69
2022/01/22 03:49:44;;;;;;;;;;;3.50;99.90;;;;;;5068776;27;20050;-69
2022/01/22 03:52:14;;;;;;;;;;;3.50;99.90;;;;;;5068656;27;20058;-68
2022/01/22 03:54:41;;;;;;;;;;;3.50;99.90;;;;;;5069336;27;21250;-69
2022/01/22 03:57:09;;;;;;;;;;;3.50;99.90;;;;;;5068904;27;20131;-69
2022/01/22 03:59:47;;;;;;;;;;;3.60;99.90;;;;;;5068685;27;20050;-69
2022/01/22 04:03:08;;;;;;;;;;;3.60;99.90;;;;;;5080034;27;20107;-69
2022/01/22 04:05:40;;;;;;;;;;;3.60;99.90;;;;;;5068571;27;20066;-68
2022/01/22 04:08:11;;;;;;;;;;;3.70;99.90;;;;;;5069078;27;20151;-69
2022/01/22 04:10:38;;;;;;;;;;;3.70;99.90;;;;;;5068021;27;20064;-69
2022/01/22 04:13:09;;;;;;;;;;;3.70;99.90;;;;;;5068404;27;20070;-69
2022/01/22 04:15:39;;;;;;;;;;;3.70;99.90;;;;;;5069483;27;20234;-69
2022/01/22 04:26:32;;;;;;;;;;;3.70;99.90;;;;;;5069154;27;20055;-69
2022/01/22 04:28:59;;;;;;;;;;;3.70;99.90;;;;;;5068075;27;20193;-69
2022/01/22 04:31:26;;;;;;;;;;;3.70;99.90;;;;;;5069019;27;20058;-69
2022/01/22 04:33:55;;;;;;;;;;;3.80;99.90;;;;;;5070645;27;21113;-69
2022/01/22 04:36:22;;;;;;;;;;;3.70;99.90;;;;;;5076581;27;20147;-68
2022/01/22 04:38:49;;;;;;;;;;;3.80;99.90;;;;;;5076472;27;20080;-68
2022/01/22 04:41:17;;;;;;;;;;;3.80;99.90;;;;;;5093885;27;20355;-68
2022/01/22 04:43:45;;;;;;;;;;;3.80;99.90;;;;;;5075898;27;20209;-69
2022/01/22 04:46:20;;;;;;;;;;;3.80;99.90;;;;;;5074547;27;20078;-68
2022/01/22 04:49:05;;;;;;;;;;;3.80;99.90;;;;;;5074902;27;21209;-68
2022/01/22 04:57:03;;;;;;;;;;;3.80;99.90;;;;;;5074909;27;20051;-69
2022/01/22 04:59:31;;;;;;;;;;;3.80;99.90;;;;;;5089446;27;20058;-69
2022/01/22 05:01:58;;;;;;;;;;;3.80;99.90;;;;;;5070623;27;20070;-69
2022/01/22 05:04:39;;;;;;;;;;;3.80;99.90;;;;;;5072571;27;21214;-69
2022/01/22 05:07:20;;;;;;;;;;;3.80;99.90;;;;;;5089281;27;21176;-69
2022/01/22 05:10:06;;;;;;;;;;;3.80;99.90;;;;;;5089383;27;20056;-68
2022/01/22 05:12:36;;;;;;;;;;;3.80;99.90;;;;;;5071109;27;20058;-68
2022/01/22 05:15:03;;;;;;;;;;;3.80;99.90;;;;;;5068245;27;20064;-68
2022/01/22 05:17:32;;;;;;;;;;;3.80;99.90;;;;;;5067977;27;20248;-68
2022/01/22 05:20:07;;;;;;;;;;;3.80;99.90;;;;;;5067399;27;20077;-69
2022/01/22 05:22:51;;;;;;;;;;;3.80;99.90;;;;;;5067942;27;20272;-69
2022/01/22 05:25:21;;;;;;;;;;;3.80;99.90;;;;;;5067714;27;20050;-69
2022/01/22 05:28:09;;;;;;;;;;;3.80;99.90;;;;;;5067400;27;20194;-69
2022/01/22 05:31:00;;;;;;;;;;;3.80;99.90;;;;;;5067608;27;20186;-69
2022/01/22 05:39:16;;;;;;;;;;;3.80;99.90;;;;;;5067030;27;20046;-69
2022/01/22 05:41:44;;;;;;;;;;;3.80;99.90;;;;;;5067425;27;21112;-69
2022/01/22 05:44:11;;;;;;;;;;;3.80;99.90;;;;;;5067354;27;20156;-69
2022/01/22 05:46:38;;;;;;;;;;;3.90;99.90;;;;;;5067075;27;20059;-69
2022/01/22 05:49:06;;;;;;;;;;;3.80;99.90;;;;;;5065871;27;21176;-69
2022/01/22 05:51:35;;;;;;;;;;;3.80;99.90;;;;;;5066822;27;20354;-69
2022/01/22 05:54:32;;;;;;;;;;;3.80;99.90;;;;;;5067998;27;21174;-71
2022/01/22 05:59:45;;;;;;;;;;;3.90;99.90;;;;;;5066793;27;20241;-69
2022/01/22 06:02:13;;;;;;;;;;;3.90;99.90;;;;;;5057132;27;21094;-70
2022/01/22 06:04:42;;;;;;;;;;;3.90;99.90;;;;;;5066102;27;20286;-70
2022/01/22 06:07:12;;;;;;;;;;;3.90;99.90;;;;;;5066654;27;20067;-69
2022/01/22 06:09:51;;;;;;;;;;;3.90;99.90;;;;;;5065376;27;20081;-69
2022/01/22 06:12:36;;;;;;;;;;;3.90;99.90;;;;;;5062990;27;20056;-70
2022/01/22 06:15:04;;;;;;;;;;;3.90;99.90;;;;;;5049888;28;20050;-69
2022/01/22 06:17:37;;;;;;;;;;;3.90;99.90;;;;;;5063612;28;20050;-69
2022/01/22 06:20:12;;;;;;;;;;;3.90;99.90;;;;;;5065460;27;20159;-68
2022/01/22 06:22:40;;;;;;;;;;;3.90;99.90;;;;;;5067038;28;20211;-69
2022/01/22 06:25:08;;;;;;;;;;;3.90;99.90;;;;;;5066892;28;20066;-70
2022/01/22 06:27:37;;;;;;;;;;;3.90;99.90;;;;;;5066479;28;20050;-69
2022/01/22 06:30:05;;;;;;;;;;;4.00;99.90;;;;;;5065794;28;21135;-70
2022/01/22 06:32:39;;;;;;;;;;;3.90;99.90;;;;;;5066219;28;20159;-70
2022/01/22 06:35:07;;;;;;;;;;;3.90;99.90;;;;;;5067279;28;20260;-70
2022/01/22 06:37:34;;;;;;;;;;;3.90;99.90;;;;;;5066245;28;20183;-70
2022/01/22 06:43:36;;;;;;;;;;;4.00;99.90;;;;;;5067039;28;20038;-70
2022/01/22 06:46:09;;;;;;;;;;;3.90;99.90;;;;;;5084348;27;20213;-70
2022/01/22 06:48:45;;;;;;;;;;;3.90;99.90;;;;;;5066357;27;20102;-66
2022/01/22 06:51:26;;;;;;;;;;;4.00;99.90;;;;;;5057381;27;20251;-69
2022/01/22 06:53:54;;;;;;;;;;;4.00;99.90;;;;;;5071214;27;20089;-68
2022/01/22 06:56:21;;;;;;;;;;;3.90;99.90;;;;;;5071115;27;20059;-69
2022/01/22 06:59:11;;;;;;;;;;;4.00;99.90;;;;;;5070399;27;20049;-70
2022/01/22 07:01:40;;;;;;;;;;;4.00;99.90;;;;;;5070040;27;20167;-69
2022/01/22 07:04:17;;;;;;;;;;;4.00;99.90;;;;;;5062893;27;20297;-69
2022/01/22 07:07:04;;;;;;;;;;;4.00;99.90;;;;;;5076094;27;20066;-71
2022/01/22 07:09:33;;;;;;;;;;;4.00;99.90;;;;;;5069486;27;20140;-70
2022/01/22 07:12:00;;;;;;;;;;;4.00;99.90;;;;;;5069498;27;20094;-74
2022/01/22 07:14:29;;;;;;;;;;;4.00;99.90;;;;;;5087510;27;20067;-70
2022/01/22 07:16:56;;;;;;;;;;;4.00;99.90;;;;;;5087722;27;20058;-70
2022/01/22 07:19:38;;;;;;;;;;;4.00;99.90;;;;;;5086859;27;20050;-71
2022/01/22 07:22:33;;;;;;;;;;;4.00;99.90;;;;;;5087282;27;20099;-71
2022/01/22 07:25:19;;;;;;;;;;;4.00;99.90;;;;;;5090867;27;20147;-72
2022/01/22 07:27:47;;;;;;;;;;;4.10;99.90;;;;;;5069898;27;20050;-71
2022/01/22 07:30:16;;;;;;;;;;;4.10;99.90;;;;;;5085325;27;20161;-72
2022/01/22 07:32:44;;;;;;;;;;;4.10;99.90;;;;;;5086908;27;21246;-71
2022/01/22 07:35:12;;;;;;;;;;;4.10;99.90;;;;;;5069617;27;20192;-72
2022/01/22 07:37:40;;;;;;;;;;;4.10;99.90;;;;;;5086711;27;20066;-71
2022/01/22 07:40:16;;;;;;;;;;;4.10;99.90;;;;;;5068879;27;20099;-78
2022/01/22 07:42:51;;;;;;;;;;;4.10;99.90;;;;;;5081818;27;20268;-72
2022/01/22 07:45:41;;;;;;;;;;;4.10;99.90;;;;;;5088134;27;20236;-72
2022/01/22 07:48:16;;;;;;;;;;;4.10;99.90;;;;;;5069269;27;20478;-71
2022/01/22 07:51:02;;;;;;;;;;;4.10;99.90;;;;;;5089423;27;20191;-72
2022/01/22 07:53:30;;;;;;;;;;;4.10;99.90;;;;;;5069462;27;20107;-69
2022/01/22 07:56:00;;;;;;;;;;;4.20;99.90;;;;;;5069524;27;20065;-69
2022/01/22 07:58:27;;;;;;;;;;;4.30;99.90;;;;;;5066355;27;20074;-70
2022/01/22 08:00:56;;;;;;;;;;;4.30;99.90;;;;;;5053891;27;20324;-70
2022/01/22 08:03:27;;;;;;;;;;;4.30;99.90;;;;;;5067909;27;21183;-70
2022/01/22 08:06:16;;;;;;;;;;;4.20;99.90;;;;;;5089928;27;21078;-69
2022/01/22 08:09:18;;;;;;;;;;;4.20;99.90;;;;;;5087031;27;20159;-70
2022/01/22 08:12:06;;;;;;;;;;;4.20;99.90;;;;;;5087179;27;20181;-69
2022/01/22 08:14:34;;;;;;;;;;;4.20;99.90;;;;;;5085625;27;21011;-69
2022/01/22 08:17:03;;;;;;;;;;;4.20;99.90;;;;;;5080290;27;20219;-68
2022/01/22 08:19:36;;;;;;;;;;;4.20;99.90;;;;;;5066182;27;20087;-71
2022/01/22 08:22:09;;;;;;;;;;;4.20;99.90;;;;;;5067875;27;20074;-69
2022/01/22 08:25:01;;;;;;;;;;;4.20;99.90;;;;;;5029104;27;20098;-70
2022/01/22 08:27:39;;;;;;;;;;;4.20;99.90;;;;;;5068239;27;21066;-69
2022/01/22 08:30:09;;;;;;;;;;;4.20;99.90;;;;;;5061442;27;20067;-67
2022/01/22 08:32:58;;;;;;;;;;;4.30;99.90;;;;;;5058857;27;20185;-70
2022/01/22 08:38:11;;;;;;;;;;;4.30;99.90;;;;;;5059195;28;21195;-69
2022/01/22 08:40:38;;;;;;;;;;;4.40;99.90;;;;;;5064471;28;20171;-69
2022/01/22 08:43:05;;;;;;;;;;;4.40;99.90;;;;;;5064393;28;20222;-69
2022/01/22 08:45:32;;;;;;;;;;;4.40;99.90;;;;;;5049324;28;21136;-70
2022/01/22 08:48:03;;;;;;;;;;;4.40;99.90;;;;;;5079165;27;20082;-70
2022/01/22 08:50:33;;;;;;;;;;;4.40;99.90;;;;;;5066600;27;21175;-68
2022/01/22 08:53:01;;;;;;;;;;;4.40;99.90;;;;;;5067658;27;20341;-67
2022/01/22 08:55:28;;;;;;;;;;;4.30;99.90;;;;;;5068395;27;20058;-69
2022/01/22 08:57:55;;;;;;;;;;;4.30;99.90;;;;;;5068248;27;20059;-70
2022/01/22 09:00:35;;;;;;;;;;;4.30;99.90;;;;;;5067009;27;20078;-70
2022/01/22 09:03:10;;;;;;;;;;;4.40;99.90;;;;;;5065076;27;20067;-70
2022/01/22 09:06:13;;;;;;;;;;;4.40;99.90;;;;;;4967060;28;20280;-69
2022/01/22 09:08:50;;;;;;;;;;;4.40;99.90;;;;;;5065857;27;20225;-75
2022/01/22 09:11:42;;;;;;;;;;;4.40;99.90;;;;;;5054547;28;20068;-73
2022/01/22 09:14:29;;;;;;;;;;;4.50;99.90;;;;;;5051584;28;21089;-71
2022/01/22 09:16:58;;;;;;;;;;;4.50;99.90;;;;;;5064581;28;20154;-71
2022/01/22 09:19:33;;;;;;;;;;;4.50;99.90;;;;;;5046193;28;20059;-72
2022/01/22 09:22:01;;;;;;;;;;;4.60;99.90;;;;;;5064869;28;20067;-72
2022/01/22 09:24:28;;;;;;;;;;;4.60;99.90;;;;;;5049132;28;20269;-71
2022/01/22 09:26:57;;;;;;;;;;;4.60;99.90;;;;;;5064271;28;20074;-69
2022/01/22 09:29:24;;;;;;;;;;;4.70;99.90;;;;;;5065003;28;20058;-73
2022/01/22 09:31:52;;;;;;;;;;;4.70;99.90;;;;;;5062719;27;20248;-70
2022/01/22 09:34:43;;;;;;;;;;;4.70;99.90;;;;;;5074883;27;20258;-71
2022/01/22 09:37:28;;;;;;;;;;;4.70;99.90;;;;;;5067251;27;20066;-70
2022/01/22 09:40:25;;;;;;;;;;;4.70;99.90;;;;;;5009267;27;20426;-70
2022/01/22 09:43:12;;;;;;;;;;;4.70;99.90;;;;;;5087348;27;21136;-70
2022/01/22 09:45:55;;;;;;;;;;;4.70;99.90;;;;;;5067630;27;20059;-70
2022/01/22 09:48:47;;;;;;;;;;;4.70;99.90;;;;;;5062462;27;20067;-68
2022/01/22 09:51:37;;;;;;;;;;;4.70;99.90;;;;;;5066709;27;20059;-71
2022/01/22 09:54:21;;;;;;;;;;;4.70;99.90;;;;;;5068443;27;20270;-70
2022/01/22 09:57:02;;;;;;;;;;;4.70;99.90;;;;;;5085258;27;20195;-69
2022/01/22 10:00:09;;;;;;;;;;;4.80;99.90;;;;;;4988294;28;20108;-69
2022/01/22 10:02:46;;;;;;;;;;;4.70;99.90;;;;;;4976697;28;20068;-69
2022/01/22 10:05:34;;;;;;;;;;;4.80;99.90;;;;;;5043906;27;20246;-70
2022/01/22 10:08:34;;;;;;;;;;;4.80;99.90;;;;;;5027151;27;20067;-70
2022/01/22 10:11:20;;;;;;;;;;;4.80;99.90;;;;;;5077373;27;21217;-70
2022/01/22 10:14:06;;;;;;;;;;;4.90;99.90;;;;;;5067341;28;20074;-69
2022/01/22 10:16:34;;;;;;;;;;;4.90;99.90;;;;;;5063955;28;20139;-69
2022/01/22 10:19:15;;;;;;;;;;;4.90;99.90;;;;;;5062536;28;20168;-69
2022/01/22 10:21:43;;;;;;;;;;;4.90;99.90;;;;;;5064194;28;21114;-70
2022/01/22 10:24:26;;;;;;;;;;;5.00;99.90;;;;;;5063420;28;20059;-69
2022/01/22 10:27:08;;;;;;;;;;;5.00;99.90;;;;;;5064082;28;20078;-70
2022/01/22 10:29:35;;;;;;;;;;;5.10;99.90;;;;;;5061707;28;20087;-69
2022/01/22 10:32:04;;;;;;;;;;;5.20;99.90;;;;;;5063379;28;20067;-70
2022/01/22 10:35:07;;;;;;;;;;;5.30;99.90;;;;;;5040460;28;20254;-70
2022/01/22 10:37:55;;;;;;;;;;;5.40;99.90;;;;;;5067266;28;21223;-70
2022/01/22 10:40:28;;;;;;;;;;;5.40;99.90;;;;;;5062720;28;21095;-69
2022/01/22 10:43:11;;;;;;;;;;;5.40;99.90;;;;;;5063922;28;21146;-70
2022/01/22 10:45:41;;;;;;;;;;;5.50;99.90;;;;;;5064042;28;20160;-70
2022/01/22 10:48:16;;;;;;;;;;;5.40;99.90;;;;;;5063761;28;20057;-70
2022/01/22 10:50:43;;;;;;;;;;;5.50;99.90;;;;;;5062911;28;20183;-68
2022/01/22 10:53:10;;;;;;;;;;;5.40;99.90;;;;;;5065658;28;21125;-70
2022/01/22 10:55:52;;;;;;;;;;;5.40;99.90;;;;;;5066175;28;20088;-71
2022/01/22 10:58:21;;;;;;;;;;;5.40;99.90;;;;;;5065213;28;21167;-70
2022/01/22 11:00:58;;;;;;;;;;;5.50;99.90;;;;;;5065827;28;21165;-70
2022/01/22 11:03:26;;;;;;;;;;;5.50;99.90;;;;;;5066304;28;20139;-70
2022/01/22 11:05:54;;;;;;;;;;;5.50;99.90;;;;;;5066140;28;20055;-70
2022/01/22 11:08:21;;;;;;;;;;;5.50;99.90;;;;;;5063378;28;20177;-70
2022/01/22 11:10:49;;;;;;;;;;;5.40;99.90;;;;;;5058138;28;20082;-70
2022/01/22 11:13:16;;;;;;;;;;;5.40;99.90;;;;;;5066052;28;20059;-70
2022/01/22 11:15:45;;;;;;;;;;;5.40;99.90;;;;;;5066408;28;20332;-70
2022/01/22 11:18:12;;;;;;;;;;;5.40;99.90;;;;;;5066247;28;20159;-70
2022/01/22 11:20:40;;;;;;;;;;;5.40;99.90;;;;;;5064801;28;20139;-69
2022/01/22 11:23:07;;;;;;;;;;;5.40;99.90;;;;;;5065630;28;20059;-69
2022/01/22 11:25:35;;;;;;;;;;;5.40;99.90;;;;;;5065948;28;21156;-69
2022/01/22 11:28:03;;;;;;;;;;;5.40;99.90;;;;;;5066021;28;20141;-70
2022/01/22 11:30:30;;;;;;;;;;;5.50;99.90;;;;;;5064867;28;20066;-70
2022/01/22 11:33:01;;;;;;;;;;;5.50;99.90;;;;;;5065590;28;20064;-70
2022/01/22 11:35:33;;;;;;;;;;;5.50;99.90;;;;;;5070099;27;20087;-69
2022/01/22 11:38:05;;;;;;;;;;;5.50;99.90;;;;;;5069162;27;20058;-70
2022/01/22 11:40:34;;;;;;;;;;;5.50;99.90;;;;;;5068783;27;20051;-70
2022/01/22 11:43:05;;;;;;;;;;;5.50;99.90;;;;;;5067065;27;20266;-69
2022/01/22 11:45:35;;;;;;;;;;;5.60;99.90;;;;;;5067321;27;20087;-70
2022/01/22 11:48:15;;;;;;;;;;;5.60;99.90;;;;;;5068463;27;21070;-70
2022/01/22 11:50:43;;;;;;;;;;;5.60;99.90;;;;;;5081413;27;21093;-70
2022/01/22 11:53:23;;;;;;;;;;;5.70;99.90;;;;;;5064662;27;20064;-70
2022/01/22 11:56:12;;;;;;;;;;;5.70;99.90;;;;;;5074183;27;21126;-70
2022/01/22 11:58:54;;;;;;;;;;;5.70;99.90;;;;;;5059031;27;21632;-69
2022/01/22 12:01:35;;;;;;;;;;;5.80;99.90;;;;;;5064106;27;20068;-70
2022/01/22 12:04:04;;;;;;;;;;;5.90;99.90;;;;;;5061164;27;20065;-70
2022/01/22 12:06:31;;;;;;;;;;;5.90;99.90;;;;;;5067993;27;20065;-70
2022/01/22 12:09:07;;;;;;;;;;;5.90;99.90;;;;;;5068349;27;20074;-69
2022/01/22 12:14:45;;;;;;;;;;;5.90;99.90;;;;;;5067860;27;20062;-70
2022/01/22 12:17:18;;;;;;;;;;;6.00;99.90;;;;;;5070230;27;20059;-69
2022/01/22 12:20:06;;;;;;;;;;;6.00;99.90;;;;;;5062372;27;20210;-69
2022/01/22 12:22:47;;;;;;;;;;;6.10;99.90;;;;;;5068120;27;20057;-69
2022/01/22 12:25:29;;;;;;;;;;;6.10;99.90;;;;;;5068474;27;21192;-70
2022/01/22 12:27:56;;;;;;;;;;;6.10;99.90;;;;;;5067428;27;20159;-69
2022/01/22 12:30:33;;;;;;;;;;;6.10;99.90;;;;;;5067372;27;20094;-69
2022/01/22 12:33:01;;;;;;;;;;;6.10;99.90;;;;;;5068371;27;20130;-69
2022/01/22 12:35:35;;;;;;;;;;;6.10;99.90;;;;;;5068718;27;20054;-69
2022/01/22 12:38:16;;;;;;;;;;;6.10;99.90;;;;;;5069109;27;20058;-69
2022/01/22 12:40:44;;;;;;;;;;;6.10;99.90;;;;;;5067611;27;20050;-70
2022/01/22 12:43:18;;;;;;;;;;;6.10;99.90;;;;;;5068464;27;20088;-70
2022/01/22 12:45:46;;;;;;;;;;;6.20;99.90;;;;;;5069391;27;21146;-69
2022/01/22 12:48:14;;;;;;;;;;;6.10;99.90;;;;;;5067558;27;20059;-70
2022/01/22 12:50:43;;;;;;;;;;;6.10;99.90;;;;;;5067656;27;20074;-70
2022/01/22 12:53:11;;;;;;;;;;;6.00;99.90;;;;;;5075795;27;20059;-70
2022/01/22 12:56:03;;;;;;;;;;;6.00;99.90;;;;;;5089618;28;20068;-69
2022/01/22 12:58:31;;;;;;;;;;;6.00;99.90;;;;;;5110842;27;20059;-69
2022/01/22 13:01:13;;;;;;;;;;;6.00;99.90;;;;;;5085316;27;20213;-68
2022/01/22 13:03:41;;;;;;;;;;;6.00;99.90;;;;;;5084380;27;20067;-70
2022/01/22 13:06:10;;;;;;;;;;;6.00;99.90;;;;;;5090107;27;20066;-71
2022/01/22 13:08:57;;;;;;;;;;;6.00;99.90;;;;;;5089056;27;20065;-70
2022/01/22 13:11:32;;;;;;;;;;;6.00;99.90;;;;;;5069723;27;20070;-71
2022/01/22 13:13:59;;;;;;;;;;;6.00;99.90;;;;;;5069361;27;20050;-70
2022/01/22 13:16:27;;;;;;;;;;;5.90;99.90;;;;;;5068948;27;21163;-70
2022/01/22 13:18:57;;;;;;;;;;;5.90;99.90;;;;;;5068208;27;20050;-70
2022/01/22 13:21:26;;;;;;;;;;;5.90;99.90;;;;;;5069304;27;20201;-71
2022/01/22 13:24:04;;;;;;;;;;;5.90;99.90;;;;;;5065532;27;20086;-71
2022/01/22 13:26:46;;;;;;;;;;;5.90;99.90;;;;;;5067782;27;20078;-71
2022/01/22 13:29:22;;;;;;;;;;;6.00;99.90;;;;;;5066721;27;20146;-69
2022/01/22 13:31:59;;;;;;;;;;;6.00;99.90;;;;;;5067665;27;20064;-71
2022/01/22 13:34:35;;;;;;;;;;;5.90;99.90;;;;;;5067547;27;20058;-71
2022/01/22 13:47:40;;;;;;;;;;;5.90;99.90;;;;;;5067719;27;20310;-71
2022/01/22 13:48:10;;;;;;;;;;;5.90;99.90;;;;;;5066815;27;20076;-70
2022/01/22 13:50:37;;;;;;;;;;;5.90;99.90;;;;;;5066306;27;20066;-71
2022/01/22 13:53:06;;;;;;;;;;;5.90;99.90;;;;;;5067959;27;21017;-70
2022/01/22 13:55:33;;;;;;;;;;;5.90;99.90;;;;;;5067785;27;20097;-70
2022/01/22 13:58:01;;;;;;;;;;;5.90;99.90;;;;;;5067216;27;20073;-71
2022/01/22 14:00:28;;;;;;;;;;;5.90;99.90;;;;;;5066769;27;20050;-71
2022/01/22 14:03:08;;;;;;;;;;;5.90;99.90;;;;;;5067218;27;20050;-71
2022/01/22 14:05:36;;;;;;;;;;;5.90;99.90;;;;;;5067575;27;20264;-70
2022/01/22 14:08:05;;;;;;;;;;;5.90;99.90;;;;;;5067482;27;20150;-71
2022/01/22 14:10:34;;;;;;;;;;;5.80;99.90;;;;;;5065628;27;20056;-71
2022/01/22 14:13:07;;;;;;;;;;;5.80;99.90;;;;;;5067035;27;20072;-71
2022/01/22 14:15:39;;;;;;;;;;;5.80;99.90;;;;;;5083481;27;21044;-71
2022/01/22 14:18:09;;;;;;;;;;;5.80;99.90;;;;;;5083672;27;20050;-71
2022/01/22 14:20:37;;;;;;;;;;;5.80;99.90;;;;;;5065783;27;20167;-71
2022/01/22 14:23:06;;;;;;;;;;;5.80;99.90;;;;;;5084191;27;20050;-71
2022/01/22 14:25:36;;;;;;;;;;;5.80;99.90;;;;;;5083466;27;20068;-71
2022/01/22 14:28:07;;;;;;;;;;;5.90;99.90;;;;;;5082904;27;20085;-70
2022/01/22 14:30:36;;;;;;;;;;;5.80;99.90;;;;;;5066235;28;21029;-71
2022/01/22 14:33:03;;;;;;;;;;;5.80;99.90;;;;;;5061751;28;20076;-71
2022/01/22 14:35:31;;;;;;;;;;;5.80;99.90;;;;;;5056447;28;20076;-70
2022/01/22 14:38:13;;;;;;;;;;;5.80;99.90;;;;;;5065913;28;20258;-78
2022/01/22 14:46:10;;;;;;;;;;;5.80;99.90;;;;;;5052167;28;20073;-71
2022/01/22 14:48:38;;;;;;;;;;;5.80;99.90;;;;;;5064933;28;21292;-71
2022/01/22 14:51:05;;;;;;;;;;;5.80;99.90;;;;;;5065801;28;20078;-71
2022/01/22 14:53:32;;;;;;;;;;;5.80;99.90;;;;;;5036010;22;20148;-70
2022/01/22 14:56:02;;;;;;;;;;;5.80;99.90;;;;;;5002346;28;20059;-71
2022/01/22 14:58:29;;;;;;;;;;;5.80;99.90;;;;;;5017933;28;21088;-70
2022/01/22 15:00:56;;;;;;;;;;;5.80;99.90;;;;;;5016632;28;20067;-71
2022/01/22 15:03:23;;;;;;;;;;;5.80;99.90;;;;;;5023718;28;20074;-70
2022/01/22 15:05:51;;;;;;;;;;;5.80;99.90;;;;;;5023296;28;20154;-71
2022/01/22 15:08:18;;;;;;;;;;;5.80;99.90;;;;;;5010542;28;20074;-71
2022/01/22 15:10:45;;;;;;;;;;;5.80;99.90;;;;;;5022245;28;20068;-71
2022/01/22 15:13:14;;;;;;;;;;;5.70;99.90;;;;;;5027945;28;20051;-70
2022/01/22 15:15:46;;;;;;;;;;;5.70;99.90;;;;;;5026633;28;20051;-70
2022/01/22 15:18:25;;;;;;;;;;;5.70;99.90;;;;;;5027327;28;20060;-69
2022/01/22 15:20:52;;;;;;;;;;;5.70;99.90;;;;;;5026225;28;20051;-70
2022/01/22 15:23:19;;;;;;;;;;;5.60;99.90;;;;;;5027306;28;20175;-71
2022/01/22 15:25:47;;;;;;;;;;;5.60;99.90;;;;;;5026802;28;20066;-71
2022/01/22 15:28:16;;;;;;;;;;;5.60;99.90;;;;;;5026817;28;20059;-70
2022/01/22 15:30:50;;;;;;;;;;;5.60;99.90;;;;;;5025982;28;20060;-69
2022/01/22 15:33:21;;;;;;;;;;;5.60;99.90;;;;;;5026643;28;20075;-69
2022/01/22 15:35:48;;;;;;;;;;;5.60;99.90;;;;;;5026402;28;20052;-69
2022/01/22 15:38:15;;;;;;;;;;;5.50;99.90;;;;;;5027379;28;20152;-70
2022/01/22 15:40:43;;;;;;;;;;;5.50;99.90;;;;;;5026569;28;20051;-70
2022/01/22 15:43:11;;;;;;;;;;;5.50;99.90;;;;;;5027367;28;20051;-74
2022/01/22 15:45:39;;;;;;;;;;;5.50;99.90;;;;;;5028425;28;21100;-73
2022/01/22 15:48:07;;;;;;;;;;;5.50;99.90;;;;;;5026051;28;20059;-72
2022/01/22 15:50:34;;;;;;;;;;;5.50;99.90;;;;;;5025141;28;20082;-71
2022/01/22 15:53:01;;;;;;;;;;;5.50;99.90;;;;;;5026044;28;20067;-70
2022/01/22 15:55:28;;;;;;;;;;;5.50;99.90;;;;;;5026499;28;20060;-70
2022/01/22 15:57:56;;;;;;;;;;;5.40;99.90;;;;;;5026007;28;21192;-70
2022/01/22 16:00:23;;;;;;;;;;;5.40;99.90;;;;;;5025397;28;21069;-75
2022/01/22 16:02:52;;;;;;;;;;;5.40;99.90;;;;;;5026116;28;21270;-70
2022/01/22 16:05:24;;;;;;;;;;;5.40;99.90;;;;;;5026179;28;20066;-71
2022/01/22 16:07:51;;;;;;;;;;;5.40;99.90;;;;;;5026519;28;20067;-70
2022/01/22 16:10:18;;;;;;;;;;;5.40;99.90;;;;;;5025577;28;20052;-70
2022/01/22 16:12:48;;;;;;;;;;;5.40;99.90;;;;;;5008759;28;21064;-71
2022/01/22 16:15:15;;;;;;;;;;;5.40;99.90;;;;;;5008644;28;20105;-70
2022/01/22 16:17:44;;;;;;;;;;;5.40;99.90;;;;;;5008539;28;20068;-71
2022/01/22 16:20:13;;;;;;;;;;;5.30;99.90;;;;;;5024099;28;20195;-71
2022/01/22 16:22:40;;;;;;;;;;;5.30;99.90;;;;;;5008421;28;21117;-70